Time;durP1;ratioP1;P1;durP2;ratioP2;P2;SDS_P1;SDS_P2;PMS_P1;PMS_P2;Temp;Humidity;BMP_temperature;BMP_pressure;BME280_temperature;BME280_humidity;BME280_pressure;Samples;Min_cycle;Max_cycle;Signal;HPM_P1;HPM_P2
2023/12/03 00:02:52;;;;;;;5.23;2.10;;;;;;;22.81;44.02;94118.00;6143637;28;109163;-61
2023/12/03 00:05:55;;;;;;;4.07;1.83;;;;;;;22.83;43.80;94137.91;6150933;28;110217;-61
2023/12/03 00:08:59;;;;;;;3.93;1.90;;;;;;;22.95;44.08;94147.81;6165127;28;110423;-62
2023/12/03 00:12:02;;;;;;;4.43;1.73;;;;;;;22.93;44.11;94160.72;6179133;28;109167;-62
2023/12/03 00:15:07;;;;;;;3.20;2.00;;;;;;;22.94;43.75;94154.25;6161539;28;109247;-61
2023/12/03 00:18:10;;;;;;;4.33;2.20;;;;;;;22.89;43.82;94147.25;6149380;28;109154;-61
2023/12/03 00:21:13;;;;;;;7.73;2.00;;;;;;;22.94;43.87;94159.59;6159471;28;109096;-61
2023/12/03 00:24:18;;;;;;;3.80;1.87;;;;;;;22.92;43.43;94159.16;6160357;28;109079;-61
2023/12/03 00:27:21;;;;;;;6.00;2.10;;;;;;;22.93;43.84;94160.72;6161240;28;110237;-61
2023/12/03 00:30:25;;;;;;;6.80;2.10;;;;;;;22.93;43.81;94156.16;6152388;28;108830;-61
2023/12/03 00:33:28;;;;;;;6.90;2.00;;;;;;;22.92;43.76;94154.59;6165561;28;109223;-62
2023/12/03 00:36:31;;;;;;;3.43;1.90;;;;;;;22.92;44.14;94153.81;6160716;28;109647;-61
2023/12/03 00:39:36;;;;;;;4.93;2.43;;;;;;;22.91;43.55;94145.03;6153334;28;109182;-62
2023/12/03 00:42:39;;;;;;;6.60;2.23;;;;;;;22.91;43.70;94153.03;6154513;28;109643;-62
2023/12/03 00:45:42;;;;;;;8.70;2.77;;;;;;;22.94;43.59;94154.25;6151996;28;109202;-61
2023/12/03 00:48:45;;;;;;;6.43;2.23;;;;;;;22.94;44.20;94160.38;6136001;28;109058;-61
2023/12/03 00:51:49;;;;;;;6.97;2.53;;;;;;;22.94;44.18;94156.94;6153945;28;110229;-62
2023/12/03 00:54:53;;;;;;;7.37;2.57;;;;;;;22.93;44.39;94166.81;6160135;28;109072;-59
2023/12/03 00:57:56;;;;;;;9.30;2.70;;;;;;;22.94;44.22;94163.03;6179346;28;109033;-60
2023/12/03 01:00:59;;;;;;;4.50;2.07;;;;;;;22.94;43.69;94164.94;6166438;28;108894;-60
2023/12/03 01:04:02;;;;;;;9.07;2.10;;;;;;;22.95;44.22;94174.50;6174145;28;109977;-60
2023/12/03 01:07:05;;;;;;;7.37;2.10;;;;;;;22.86;43.82;94150.59;6168359;28;109137;-60
2023/12/03 01:10:10;;;;;;;6.17;2.33;;;;;;;22.93;43.89;94160.72;6159711;28;109378;-60
2023/12/03 01:13:13;;;;;;;9.30;2.60;;;;;;;22.94;44.15;94155.03;6174475;28;110240;-60
2023/12/03 01:16:17;;;;;;;8.27;2.00;;;;;;;22.96;43.69;94170.72;6165353;28;109553;-61
2023/12/03 01:19:20;;;;;;;6.07;2.27;;;;;;;22.94;44.24;94163.03;6158236;28;109525;-60
2023/12/03 01:22:23;;;;;;;7.70;2.00;;;;;;;22.94;44.01;94172.94;6159974;28;109043;-60
2023/12/03 01:25:28;;;;;;;12.13;3.03;;;;;;;22.95;44.22;94177.16;6154640;28;110239;-60
2023/12/03 01:28:31;;;;;;;9.43;3.40;;;;;;;22.98;43.75;94182.59;6155327;28;110210;-60
2023/12/03 01:31:34;;;;;;;7.33;3.10;;;;;;;23.02;44.06;94185.41;6153554;28;109504;-60
2023/12/03 01:34:37;;;;;;;7.40;2.43;;;;;;;23.01;43.86;94165.94;6158034;28;109156;-63
2023/12/03 01:37:40;;;;;;;7.83;2.50;;;;;;;23.02;44.08;94172.06;6167112;28;110959;-61
2023/12/03 01:40:53;;;;;;;8.27;2.60;;;;;;;23.02;44.11;94169.41;6160141;28;109375;-60
2023/12/03 01:43:56;;;;;;;5.37;2.00;;;;;;;23.00;43.94;94166.25;6157357;28;109136;-60
2023/12/03 01:47:00;;;;;;;6.90;2.43;;;;;;;22.97;44.01;94166.94;6152840;28;109301;-60
2023/12/03 01:50:06;;;;;;;8.40;1.90;;;;;;;22.89;44.58;94157.16;6147876;28;109236;-61
2023/12/03 01:53:10;;;;;;;4.97;1.90;;;;;;;22.96;44.52;94163.47;6149381;28;110075;-60
2023/12/03 01:56:17;;;;;;;7.67;2.20;;;;;;;23.01;44.59;94170.47;6172508;28;110451;-60
2023/12/03 01:59:23;;;;;;;6.60;1.93;;;;;;;23.00;44.72;94169.72;6178875;28;109238;-60
2023/12/03 02:02:26;;;;;;;3.80;1.40;;;;;;;23.01;44.69;94173.94;6152504;28;110633;-61
2023/12/03 02:05:30;;;;;;;8.10;1.60;;;;;;;23.03;44.75;94180.84;6165397;28;109108;-61
2023/12/03 02:08:34;;;;;;;4.67;1.70;;;;;;;23.02;44.18;94188.06;6161859;28;109412;-60
2023/12/03 02:11:39;;;;;;;4.03;1.43;;;;;;;23.03;44.39;94189.63;6168848;28;112415;-59
2023/12/03 02:14:42;;;;;;;4.83;1.60;;;;;;;23.03;44.43;94176.28;6160473;28;112862;-61
2023/12/03 02:17:46;;;;;;;6.87;1.70;;;;;;;22.98;44.44;94169.25;6164076;28;111705;-60
2023/12/03 02:20:49;;;;;;;4.40;1.53;;;;;;;22.99;44.14;94180.72;6164043;28;109197;-60
2023/12/03 02:23:53;;;;;;;5.00;1.20;;;;;;;22.99;44.43;94175.38;6147502;28;109347;-60
2023/12/03 02:26:56;;;;;;;5.97;1.60;;;;;;;22.99;44.51;94170.03;6156207;28;109456;-60
2023/12/03 02:29:59;;;;;;;4.13;1.30;;;;;;;22.98;44.21;94171.94;6162439;28;110090;-60
2023/12/03 02:33:03;;;;;;;5.17;1.57;;;;;;;22.98;43.91;94174.59;6167261;28;110054;-60
2023/12/03 02:36:07;;;;;;;5.63;1.43;;;;;;;22.98;44.37;94184.50;6158109;28;110355;-61
2023/12/03 02:39:12;;;;;;;4.27;1.57;;;;;;;22.99;44.59;94180.72;6161098;28;109172;-61
2023/12/03 02:42:15;;;;;;;3.53;1.47;;;;;;;22.90;44.05;94158.72;6181858;28;109107;-60
2023/12/03 02:45:19;;;;;;;3.80;1.23;;;;;;;22.85;44.32;94165.06;6161336;28;110510;-61
2023/12/03 02:48:22;;;;;;;3.60;1.23;;;;;;;22.99;43.94;94186.06;6173400;28;109290;-61
2023/12/03 02:51:25;;;;;;;3.30;1.70;;;;;;;22.98;44.09;94189.84;6173170;28;109053;-60
2023/12/03 02:54:29;;;;;;;4.83;1.70;;;;;;;22.99;44.14;94196.72;6187594;28;110411;-61
2023/12/03 02:57:33;;;;;;;6.27;1.57;;;;;;;22.93;44.19;94192.72;6176234;28;109299;-61
2023/12/03 03:00:36;;;;;;;4.00;1.40;;;;;;;22.98;44.07;94211.97;6177502;28;109143;-64
2023/12/03 03:03:39;;;;;;;4.07;1.57;;;;;;;22.97;44.11;94214.97;6165996;28;108723;-60
2023/12/03 03:06:42;;;;;;;3.80;1.33;;;;;;;22.99;44.44;94212.72;6163099;28;109050;-60
2023/12/03 03:09:47;;;;;;;3.87;1.20;;;;;;;22.99;43.88;94218.06;6150930;28;109347;-60
2023/12/03 03:12:50;;;;;;;3.63;1.13;;;;;;;22.99;44.33;94232.19;6168984;28;110027;-60
2023/12/03 03:15:53;;;;;;;5.23;1.47;;;;;;;22.98;44.16;94216.50;6178898;28;110255;-60
2023/12/03 03:18:56;;;;;;;3.93;1.60;;;;;;;22.98;43.88;94219.97;6157231;28;109143;-59
2023/12/03 03:22:00;;;;;;;2.80;1.23;;;;;;;22.98;43.92;94217.28;6155827;28;109911;-60
2023/12/03 03:25:05;;;;;;;2.77;1.20;;;;;;;22.91;44.49;94217.06;6162872;28;110134;-59
2023/12/03 03:28:09;;;;;;;3.07;1.50;;;;;;;22.97;44.43;94242.41;6161756;28;109193;-59
2023/12/03 03:31:12;;;;;;;3.17;1.30;;;;;;;22.98;44.47;94235.19;6149924;28;109367;-61
2023/12/03 03:34:15;;;;;;;4.00;1.30;;;;;;;22.96;44.62;94226.75;6137573;28;109336;-59
2023/12/03 03:37:18;;;;;;;2.87;1.10;;;;;;;22.96;44.21;94221.41;6154303;28;109904;-60
2023/12/03 03:40:22;;;;;;;3.00;1.53;;;;;;;22.96;44.29;94238.19;6160581;28;109347;-62
2023/12/03 03:43:25;;;;;;;4.43;1.40;;;;;;;22.96;44.58;94248.88;6132090;28;109134;-61
2023/12/03 03:46:28;;;;;;;3.37;1.17;;;;;;;22.95;44.22;94257.19;6151052;28;111687;-60
2023/12/03 03:49:32;;;;;;;5.80;1.73;;;;;;;22.92;44.83;94260.53;6161973;28;110093;-61
2023/12/03 03:52:35;;;;;;;3.83;1.50;;;;;;;22.86;44.47;94256.53;6158863;28;109362;-65
2023/12/03 03:55:39;;;;;;;4.87;1.47;;;;;;;22.79;44.77;94264.28;6153755;28;109178;-59
2023/12/03 03:58:42;;;;;;;5.30;1.80;;;;;;;22.90;44.29;94276.88;6161540;28;109151;-60
2023/12/03 04:01:46;;;;;;;5.10;1.60;;;;;;;22.93;44.96;94275.44;6167604;28;109279;-60
2023/12/03 04:04:49;;;;;;;5.33;2.10;;;;;;;22.94;44.79;94291.09;6150355;28;109587;-60
2023/12/03 04:07:52;;;;;;;4.10;1.53;;;;;;;22.93;44.44;94278.88;6167552;28;109085;-61
2023/12/03 04:10:57;;;;;;;2.93;1.40;;;;;;;22.95;44.23;94289.22;6161866;28;110368;-61
2023/12/03 04:14:00;;;;;;;3.13;1.30;;;;;;;22.84;44.28;94294.19;6148866;28;109238;-61
2023/12/03 04:17:04;;;;;;;6.20;1.80;;;;;;;22.89;44.08;94295.88;6143021;28;109487;-61
2023/12/03 04:20:08;;;;;;;4.30;1.70;;;;;;;22.94;44.02;94301.78;6148752;28;109917;-61
2023/12/03 04:23:11;;;;;;;4.20;1.43;;;;;;;22.96;44.03;94304.13;6177621;28;109467;-60
2023/12/03 04:26:15;;;;;;;3.70;1.50;;;;;;;22.96;44.17;94293.44;6180841;28;110294;-62
2023/12/03 04:29:18;;;;;;;6.53;1.37;;;;;;;22.96;44.00;94296.13;6151801;28;109434;-61
2023/12/03 04:32:23;;;;;;;2.90;1.40;;;;;;;22.96;44.06;94306.78;6163182;28;108692;-62
2023/12/03 04:35:26;;;;;;;3.13;1.30;;;;;;;22.92;44.38;94313.91;6160498;28;110167;-62
2023/12/03 04:38:29;;;;;;;4.20;1.63;;;;;;;22.95;44.47;94329.25;6156203;28;109299;-63
2023/12/03 04:41:38;;;;;;;4.07;1.50;;;;;;;22.92;44.05;94333.34;6157248;28;110399;-61
2023/12/03 04:44:41;;;;;;;4.27;1.60;;;;;;;22.89;44.52;94344.69;6162542;28;109261;-61
2023/12/03 04:47:44;;;;;;;4.47;1.50;;;;;;;22.89;44.38;94341.25;6168248;28;110016;-62
2023/12/03 04:50:48;;;;;;;7.50;2.00;;;;;;;22.83;43.65;94363.88;6151082;28;108830;-61
2023/12/03 04:53:51;;;;;;;9.47;2.30;;;;;;;22.82;42.96;94356.97;6159857;28;109259;-61
2023/12/03 04:56:55;;;;;;;10.43;3.30;;;;;;;22.86;42.55;94371.25;6158230;28;109112;-61
2023/12/03 04:59:58;;;;;;;19.80;5.73;;;;;;;22.69;40.56;94374.81;6144662;28;109074;-61
2023/12/03 05:03:01;;;;;;;12.73;6.13;;;;;;;21.92;39.65;94381.38;6144707;28;109396;-61
2023/12/03 05:06:05;;;;;;;20.30;5.53;;;;;;;22.16;39.22;94376.22;6158541;28;108845;-62
2023/12/03 05:09:09;;;;;;;17.40;5.60;;;;;;;22.39;39.54;94374.06;6156010;28;109448;-63
2023/12/03 05:12:14;;;;;;;13.20;5.00;;;;;;;22.60;39.10;94393.53;6150947;28;109660;-62
2023/12/03 05:15:17;;;;;;;13.40;4.90;;;;;;;22.71;39.20;94404.63;6153235;28;110193;-63
2023/12/03 05:18:20;;;;;;;14.13;4.50;;;;;;;22.77;39.63;94426.53;6163259;28;109409;-61
2023/12/03 05:21:23;;;;;;;13.63;4.40;;;;;;;22.81;39.57;94427.44;6159793;28;109164;-61
2023/12/03 05:24:27;;;;;;;11.23;3.80;;;;;;;22.82;39.85;94439.66;6150804;28;109378;-62
2023/12/03 05:27:31;;;;;;;8.87;3.80;;;;;;;22.78;39.72;94442.22;6141397;28;109101;-62
2023/12/03 05:30:34;;;;;;;11.40;3.97;;;;;;;22.55;40.57;94404.38;6179268;28;109550;-62
2023/12/03 05:33:38;;;;;;;11.83;3.30;;;;;;;22.75;40.30;94420.75;6166170;28;110022;-62
2023/12/03 05:36:41;;;;;;;6.83;2.90;;;;;;;22.74;40.77;94421.84;6147468;28;109134;-62
2023/12/03 05:39:44;;;;;;;8.93;3.70;;;;;;;22.74;40.85;94429.84;6163886;28;109144;-62
2023/12/03 05:42:49;;;;;;;9.53;4.00;;;;;;;22.72;41.50;94427.50;6164320;28;109081;-62
2023/12/03 05:45:52;;;;;;;5.83;3.30;;;;;;;22.72;40.98;94424.84;6164842;28;109350;-61
2023/12/03 05:48:55;;;;;;;9.90;3.40;;;;;;;22.71;41.56;94425.97;6167835;28;109138;-62
2023/12/03 05:51:59;;;;;;;8.70;3.63;;;;;;;22.71;41.17;94433.97;6180218;28;110562;-61
2023/12/03 05:55:02;;;;;;;8.23;3.37;;;;;;;22.70;41.11;94438.50;6162321;28;113231;-62
2023/12/03 05:58:06;;;;;;;9.07;3.50;;;;;;;22.69;41.06;94444.94;6167301;28;109326;-62
2023/12/03 06:01:09;;;;;;;7.17;3.10;;;;;;;22.70;41.22;94445.72;6184505;28;109597;-61
2023/12/03 06:04:13;;;;;;;8.57;3.67;;;;;;;22.68;41.15;94443.41;6188671;28;109330;-62
2023/12/03 06:07:16;;;;;;;6.30;3.03;;;;;;;22.69;41.74;94439.63;6167726;28;109072;-62
2023/12/03 06:10:19;;;;;;;10.03;3.20;;;;;;;22.65;40.86;94464.56;6154381;28;109217;-62
2023/12/03 06:13:23;;;;;;;14.00;3.20;;;;;;;22.62;40.63;94471.34;6159445;28;109672;-61
2023/12/03 06:16:27;;;;;;;13.70;4.03;;;;;;;22.65;40.58;94480.56;6166657;28;109163;-62
2023/12/03 06:19:30;;;;;;;8.67;3.40;;;;;;;22.67;40.30;94489.03;6163451;28;109060;-62
2023/12/03 06:22:33;;;;;;;7.73;3.00;;;;;;;22.62;40.17;94487.34;6154291;28;109115;-61
2023/12/03 06:25:36;;;;;;;8.80;3.33;;;;;;;22.60;39.99;94483.44;6162253;28;109634;-61
2023/12/03 06:28:41;;;;;;;9.03;3.10;;;;;;;22.45;39.79;94503.41;6170380;28;110260;-61
2023/12/03 06:31:44;;;;;;;11.30;3.93;;;;;;;22.23;39.38;94495.66;6161682;28;108893;-63
2023/12/03 06:34:47;;;;;;;16.77;4.53;;;;;;;22.21;40.03;94498.66;6156660;28;109569;-61
2023/12/03 06:37:50;;;;;;;20.60;3.50;;;;;;;22.19;39.88;94498.19;6173951;28;109382;-62
2023/12/03 06:40:54;;;;;;;12.87;3.50;;;;;;;22.18;39.94;94501.13;6172044;28;109035;-61
2023/12/03 06:43:58;;;;;;;13.60;4.20;;;;;;;21.99;40.71;94528.94;6153766;28;109861;-62
2023/12/03 06:47:01;;;;;;;10.03;4.20;;;;;;;21.99;39.46;94520.94;6163151;28;109273;-61
2023/12/03 06:50:05;;;;;;;10.70;3.47;;;;;;;21.91;39.38;94526.31;6162320;28;109347;-61
2023/12/03 06:53:09;;;;;;;11.77;3.90;;;;;;;21.92;39.31;94535.88;6163120;28;109356;-61
2023/12/03 06:56:12;;;;;;;8.87;3.40;;;;;;;21.80;39.41;94531.94;6166829;28;109548;-61
2023/12/03 06:59:17;;;;;;;10.10;3.60;;;;;;;21.85;39.38;94536.34;6173242;28;109457;-61
2023/12/03 07:02:20;;;;;;;14.83;8.50;;;;;;;21.87;39.28;94547.47;6162945;28;109119;-60
2023/12/03 07:05:23;;;;;;;9.57;6.30;;;;;;;21.80;39.74;94544.47;6170093;28;109272;-61
2023/12/03 07:08:26;;;;;;;9.10;3.80;;;;;;;21.77;39.43;94555.75;6171163;28;109392;-61
2023/12/03 07:11:29;;;;;;;9.93;4.40;;;;;;;21.74;39.92;94559.06;6174695;28;109288;-60
2023/12/03 07:14:34;;;;;;;10.83;4.27;;;;;;;21.63;40.17;94569.22;6187419;28;109112;-60
2023/12/03 07:17:37;;;;;;;11.30;4.40;;;;;;;21.70;39.82;94574.88;6179948;28;109098;-61
2023/12/03 07:20:41;;;;;;;6.73;3.37;;;;;;;21.69;39.88;94572.53;6133167;28;109218;-60
2023/12/03 07:23:44;;;;;;;14.93;3.50;;;;;;;21.67;40.11;94572.03;6156977;28;109132;-61
2023/12/03 07:26:47;;;;;;;10.43;3.30;;;;;;;21.64;39.83;94570.78;6144989;28;110146;-61
2023/12/03 07:29:53;;;;;;;7.67;3.70;;;;;;;21.88;39.98;94569.56;6145540;28;109356;-59
2023/12/03 07:32:56;;;;;;;10.77;4.07;;;;;;;22.05;39.95;94578.31;6160013;28;109162;-61
2023/12/03 07:36:00;;;;;;;13.77;4.03;;;;;;;22.18;40.06;94573.91;6153199;28;109274;-60
2023/12/03 07:39:03;;;;;;;7.63;3.07;;;;;;;22.15;39.92;94568.41;6165273;28;108971;-60
2023/12/03 07:42:07;;;;;;;9.57;3.20;;;;;;;22.26;40.59;94573.09;6152848;28;109097;-60
2023/12/03 07:45:12;;;;;;;10.63;4.00;;;;;;;22.40;40.39;94580.91;6185836;28;109259;-60
2023/12/03 07:48:15;;;;;;;10.80;3.57;;;;;;;22.38;40.13;94604.44;6186307;28;109445;-62
2023/12/03 07:51:18;;;;;;;7.00;3.17;;;;;;;22.36;40.72;94614.63;6184461;28;112934;-64
2023/12/03 07:54:21;;;;;;;8.10;3.50;;;;;;;22.47;40.36;94620.38;6178511;28;109302;-60
2023/12/03 07:57:24;;;;;;;7.43;2.77;;;;;;;22.51;40.89;94646.09;6182362;28;109577;-60
2023/12/03 08:00:29;;;;;;;10.20;3.40;;;;;;;22.40;40.71;94632.34;6161161;28;109491;-60
2023/12/03 08:03:32;;;;;;;6.57;3.20;;;;;;;22.45;40.83;94651.91;6150948;28;109095;-59
2023/12/03 08:06:35;;;;;;;5.70;2.50;;;;;;;22.41;40.67;94657.09;6160927;28;109119;-61
2023/12/03 08:09:38;;;;;;;6.50;3.40;;;;;;;22.43;40.33;94665.56;6161005;28;109231;-61
2023/12/03 08:12:41;;;;;;;8.87;3.17;;;;;;;22.43;40.61;94676.22;6164980;28;109188;-61
2023/12/03 08:15:46;;;;;;;7.67;2.70;;;;;;;22.42;40.55;94683.44;6176465;28;109685;-61
2023/12/03 08:18:49;;;;;;;7.77;2.70;;;;;;;22.42;40.17;94686.13;6186202;28;111942;-61
2023/12/03 08:21:53;;;;;;;5.10;2.03;;;;;;;22.42;40.29;94688.00;6185603;28;108908;-60
2023/12/03 08:24:56;;;;;;;5.97;2.83;;;;;;;22.41;40.84;94689.09;6185134;28;109489;-62
2023/12/03 08:27:59;;;;;;;4.37;2.57;;;;;;;22.40;40.60;94693.66;6168943;28;109337;-61
2023/12/03 08:31:04;;;;;;;6.50;3.37;;;;;;;22.40;40.46;94703.53;6160657;28;109454;-59
2023/12/03 08:34:07;;;;;;;6.10;2.70;;;;;;;22.39;40.14;94708.09;6175509;28;109598;-60
2023/12/03 08:37:10;;;;;;;3.43;2.50;;;;;;;22.35;40.58;94701.03;6180768;28;109325;-60
2023/12/03 08:40:13;;;;;;;6.03;2.70;;;;;;;22.37;40.31;94712.94;6171823;28;110188;-59
2023/12/03 08:43:16;;;;;;;4.67;2.67;;;;;;;22.39;40.33;94717.97;6167786;28;109298;-60
2023/12/03 08:46:21;;;;;;;4.30;2.43;;;;;;;22.35;40.38;94717.81;6155480;28;109001;-60
2023/12/03 08:49:24;;;;;;;6.27;2.80;;;;;;;22.38;39.97;94722.50;6150197;28;109159;-60
2023/12/03 08:52:27;;;;;;;5.20;2.67;;;;;;;22.47;40.55;94729.69;6161234;28;109024;-60
2023/12/03 08:55:31;;;;;;;5.27;3.03;;;;;;;22.54;40.29;94725.47;6160799;28;108890;-60
2023/12/03 08:58:35;;;;;;;5.13;2.67;;;;;;;22.60;39.78;94728.78;6159435;28;108785;-59
2023/12/03 09:01:41;;;;;;;5.03;2.43;;;;;;;22.61;40.25;94720.47;6150316;28;109141;-59
2023/12/03 09:04:44;;;;;;;4.50;2.83;;;;;;;22.57;40.24;94724.09;6160915;28;109955;-60
2023/12/03 09:07:47;;;;;;;6.00;2.77;;;;;;;22.50;40.42;94727.19;6160214;28;109528;-60
2023/12/03 09:10:50;;;;;;;5.10;2.47;;;;;;;22.47;40.05;94729.69;6158495;28;109312;-60
2023/12/03 09:13:54;;;;;;;4.20;2.20;;;;;;;22.28;39.83;94698.03;6153035;28;109008;-59
2023/12/03 09:16:58;;;;;;;4.97;2.80;;;;;;;22.42;40.23;94722.66;6160560;28;109582;-61
2023/12/03 09:20:02;;;;;;;4.80;3.30;;;;;;;22.37;39.96;94730.81;6145284;28;110549;-61
2023/12/03 09:23:05;;;;;;;5.60;3.17;;;;;;;22.37;40.20;94746.81;6129758;28;109492;-60
2023/12/03 09:26:08;;;;;;;5.00;2.73;;;;;;;22.34;39.90;94736.75;6159402;28;109113;-60
2023/12/03 09:29:12;;;;;;;5.07;3.00;;;;;;;22.35;39.87;94755.13;6159635;28;108933;-61
2023/12/03 09:32:16;;;;;;;4.07;2.60;;;;;;;22.26;40.03;94734.91;6159748;28;109285;-60
2023/12/03 09:35:20;;;;;;;3.60;2.90;;;;;;;22.32;39.71;94749.63;6148876;28;109346;-60
2023/12/03 09:38:23;;;;;;;5.47;2.80;;;;;;;22.35;40.16;94759.69;6160123;28;110648;-60
2023/12/03 09:41:30;;;;;;;5.37;3.50;;;;;;;22.34;39.83;94763.41;6159182;28;109280;-59
2023/12/03 09:44:39;;;;;;;4.90;2.90;;;;;;;22.30;39.82;94749.94;6159477;28;109112;-59
2023/12/03 09:47:49;;;;;;;2.83;2.47;;;;;;;22.31;39.60;94750.72;6151119;28;109678;-59
2023/12/03 09:50:56;;;;;;;6.83;3.23;;;;;;;22.31;40.07;94748.06;6159852;28;109282;-61
2023/12/03 09:54:00;;;;;;;4.03;2.90;;;;;;;22.30;40.04;94762.50;6159227;28;109291;-59
2023/12/03 09:57:06;;;;;;;3.53;3.10;;;;;;;22.32;39.83;94776.28;6150571;28;111065;-60
2023/12/03 10:00:11;;;;;;;3.80;2.97;;;;;;;22.32;39.84;94771.72;6158721;28;109143;-59
2023/12/03 10:03:15;;;;;;;3.80;3.37;;;;;;;22.31;39.77;94772.06;6159346;28;109204;-59
2023/12/03 10:06:19;;;;;;;4.30;3.07;;;;;;;22.32;39.29;94778.94;6159776;28;109349;-60
2023/12/03 10:09:23;;;;;;;4.83;3.30;;;;;;;22.27;39.36;94779.09;6149763;28;111822;-60
2023/12/03 10:12:29;;;;;;;4.10;3.27;;;;;;;22.33;39.63;94791.19;6159341;28;109505;-59
2023/12/03 10:15:32;;;;;;;4.17;2.90;;;;;;;22.34;39.14;94811.41;6180566;28;109546;-59
2023/12/03 10:18:36;;;;;;;3.53;2.90;;;;;;;22.26;38.98;94798.88;6178941;28;109249;-59
2023/12/03 10:21:49;;;;;;;3.80;3.00;;;;;;;22.22;39.30;94792.59;6149876;28;109722;-59
2023/12/03 10:24:52;;;;;;;3.63;3.03;;;;;;;22.33;39.21;94823.16;6161077;28;109521;-60
2023/12/03 10:27:56;;;;;;;4.60;3.63;;;;;;;22.35;39.33;94835.13;6163294;28;109347;-60
2023/12/03 10:30:59;;;;;;;3.70;3.00;;;;;;;22.36;39.27;94836.69;6157784;28;111243;-58
2023/12/03 10:34:05;;;;;;;5.90;3.73;;;;;;;22.33;38.75;94836.50;6156255;28;109630;-60
2023/12/03 10:37:09;;;;;;;4.30;3.33;;;;;;;22.35;38.95;94832.44;6160552;28;109438;-60
2023/12/03 10:40:12;;;;;;;4.90;3.67;;;;;;;22.30;39.67;94829.91;6161376;28;109083;-59
2023/12/03 10:43:15;;;;;;;8.00;3.40;;;;;;;22.39;39.69;94835.28;6153339;28;109157;-60
2023/12/03 10:46:18;;;;;;;6.20;4.30;;;;;;;22.40;40.23;94840.28;6162881;28;109473;-59
2023/12/03 10:49:24;;;;;;;8.60;3.60;;;;;;;22.47;40.50;94831.03;6167857;28;111446;-59
2023/12/03 10:52:31;;;;;;;10.07;4.23;;;;;;;22.08;40.17;94776.75;6163213;28;109261;-60
2023/12/03 10:55:34;;;;;;;5.37;3.37;;;;;;;22.41;40.59;94844.53;6146133;28;109216;-60
2023/12/03 10:58:39;;;;;;;12.53;3.97;;;;;;;22.41;40.49;94843.72;6162530;28;109313;-60
2023/12/03 11:01:48;;;;;;;6.90;4.00;;;;;;;22.41;40.20;94847.19;6140920;28;109552;-60
2023/12/03 11:05:00;;;;;;;7.53;4.40;;;;;;;22.38;40.06;94849.69;6145087;28;109175;-59
2023/12/03 11:08:04;;;;;;;8.53;5.43;;;;;;;22.33;39.27;94839.16;6152125;28;111358;-60
2023/12/03 11:11:09;;;;;;;7.70;4.40;;;;;;;22.37;39.14;94837.47;6160868;28;109507;-60
2023/12/03 11:14:14;;;;;;;10.60;4.63;;;;;;;22.34;39.29;94838.06;6161300;28;109302;-60
2023/12/03 11:17:25;;;;;;;8.87;4.60;;;;;;;22.41;39.20;94838.41;6139442;28;110947;-59
2023/12/03 11:20:32;;;;;;;7.90;4.70;;;;;;;22.44;39.55;94837.78;6158909;28;109050;-60
2023/12/03 11:23:48;;;;;;;6.40;4.33;;;;;;;22.44;39.31;94851.09;6161063;28;109049;-60
2023/12/03 11:26:51;;;;;;;6.70;4.40;;;;;;;22.46;39.46;94862.25;6163842;28;109490;-60
2023/12/03 11:29:57;;;;;;;6.30;4.10;;;;;;;22.39;39.35;94857.38;6145209;28;109217;-61
2023/12/03 11:33:00;;;;;;;6.20;4.53;;;;;;;22.47;39.41;94871.03;6158809;28;109331;-61
2023/12/03 11:36:05;;;;;;;6.40;3.80;;;;;;;22.46;39.00;94880.91;6156850;28;110232;-61
2023/12/03 11:39:09;;;;;;;4.80;4.07;;;;;;;22.46;39.26;94877.47;6142983;28;109559;-61
2023/12/03 11:42:13;;;;;;;6.80;3.93;;;;;;;22.45;39.71;94887.34;6152752;28;109136;-60
2023/12/03 11:45:18;;;;;;;5.30;3.97;;;;;;;22.47;39.46;94916.34;6159078;28;109227;-59
2023/12/03 11:48:22;;;;;;;6.37;4.33;;;;;;;22.47;39.30;94901.13;6159954;28;109146;-59
2023/12/03 11:51:26;;;;;;;4.60;3.70;;;;;;;22.47;39.20;94893.13;6144516;28;110231;-59
2023/12/03 11:54:38;;;;;;;4.30;3.90;;;;;;;22.47;39.17;94895.81;6153189;28;109370;-60
2023/12/03 11:57:41;;;;;;;4.80;3.83;;;;;;;22.47;39.32;94906.47;6179831;28;108979;-59
2023/12/03 12:00:45;;;;;;;6.20;3.43;;;;;;;22.47;39.52;94909.13;6153461;28;109552;-60
2023/12/03 12:03:49;;;;;;;4.10;3.63;;;;;;;22.48;39.39;94912.59;6150840;28;109089;-60
2023/12/03 12:06:54;;;;;;;4.50;3.60;;;;;;;22.49;39.63;94914.94;6185515;28;109068;-60
2023/12/03 12:09:57;;;;;;;4.87;3.50;;;;;;;22.49;39.25;94924.81;6152177;28;109304;-60
2023/12/03 12:13:01;;;;;;;4.70;4.27;;;;;;;22.48;39.63;94918.72;6145656;28;109988;-60
2023/12/03 12:16:06;;;;;;;5.03;3.60;;;;;;;22.47;39.62;94914.47;6156978;28;109424;-60
2023/12/03 12:19:09;;;;;;;5.93;3.40;;;;;;;22.47;39.36;94927.81;6165905;28;109036;-59
2023/12/03 12:22:13;;;;;;;6.73;4.13;;;;;;;22.50;39.70;94924.50;6157721;28;109254;-59
2023/12/03 12:25:16;;;;;;;3.93;3.43;;;;;;;22.61;39.54;94928.50;6150173;28;109704;-61
2023/12/03 12:28:20;;;;;;;7.03;4.30;;;;;;;22.58;39.64;94926.44;6158521;28;109014;-59
2023/12/03 12:31:26;;;;;;;5.63;4.30;;;;;;;22.56;39.77;94944.63;6173319;28;110042;-59
2023/12/03 12:34:30;;;;;;;5.23;3.90;;;;;;;22.64;39.78;94927.88;6151595;28;110471;-59
2023/12/03 12:37:35;;;;;;;5.70;4.20;;;;;;;22.79;39.88;94950.66;6151867;28;109756;-59
2023/12/03 12:40:53;;;;;;;5.93;4.00;;;;;;;22.89;40.07;94952.25;6155392;28;109472;-60
2023/12/03 12:43:57;;;;;;;4.77;3.60;;;;;;;22.89;39.68;94970.91;6149030;28;109155;-60
2023/12/03 12:47:00;;;;;;;4.50;3.97;;;;;;;22.83;39.85;94950.78;6146365;28;109216;-61
2023/12/03 12:50:04;;;;;;;7.67;3.83;;;;;;;22.93;40.24;94980.66;6156032;28;109503;-61
2023/12/03 12:53:09;;;;;;;6.47;3.73;;;;;;;22.94;40.10;94978.75;6153493;28;109801;-60
2023/12/03 12:56:12;;;;;;;5.13;3.20;;;;;;;22.96;40.51;94987.22;6164235;28;109179;-60
2023/12/03 12:59:17;;;;;;;5.10;3.97;;;;;;;22.97;40.55;94988.81;6148539;28;110045;-60
2023/12/03 13:02:21;;;;;;;6.40;4.07;;;;;;;22.96;40.86;94996.03;6160889;28;109535;-60
2023/12/03 13:05:25;;;;;;;3.80;3.00;;;;;;;22.96;40.87;94989.91;6158293;28;109210;-60
2023/12/03 13:08:30;;;;;;;4.43;3.27;;;;;;;22.92;40.47;95008.44;6157217;28;109003;-60
2023/12/03 13:11:33;;;;;;;4.30;3.67;;;;;;;22.94;40.61;95027.56;6141494;28;109108;-61
2023/12/03 13:14:37;;;;;;;5.60;3.23;;;;;;;22.94;40.79;95021.47;6158842;28;112111;-60
2023/12/03 13:17:47;;;;;;;5.40;3.23;;;;;;;22.94;40.86;95032.13;6157966;28;109287;-60
2023/12/03 13:20:51;;;;;;;4.20;3.20;;;;;;;22.92;40.80;95026.31;6156800;28;109282;-61
2023/12/03 13:23:55;;;;;;;4.97;3.50;;;;;;;22.84;41.12;95017.19;6153596;28;110280;-61
2023/12/03 13:27:06;;;;;;;5.50;3.37;;;;;;;22.89;41.03;95018.94;6159584;28;109246;-61
2023/12/03 13:30:09;;;;;;;5.13;3.37;;;;;;;22.92;41.16;95018.31;6160894;28;112354;-61
2023/12/03 13:33:13;;;;;;;3.63;2.97;;;;;;;22.91;41.06;95022.88;6150416;28;110196;-60
2023/12/03 13:36:16;;;;;;;3.97;2.90;;;;;;;22.92;40.54;95042.34;6159744;28;109073;-61
2023/12/03 13:39:21;;;;;;;7.37;3.53;;;;;;;22.86;40.61;95046.25;6156798;28;110249;-62
2023/12/03 13:42:25;;;;;;;3.70;3.00;;;;;;;22.89;40.68;95048.28;6159708;28;109085;-61
2023/12/03 13:45:28;;;;;;;4.70;3.40;;;;;;;22.89;40.61;95050.97;6157848;28;109306;-61
2023/12/03 13:48:31;;;;;;;3.03;2.63;;;;;;;22.92;41.04;95055.69;6148133;28;108974;-61
2023/12/03 13:51:34;;;;;;;5.20;3.10;;;;;;;22.91;40.82;95056.78;6182415;28;109154;-60
2023/12/03 13:54:39;;;;;;;5.67;3.40;;;;;;;22.92;40.54;95045.78;6165915;28;109542;-60
2023/12/03 13:57:42;;;;;;;4.20;3.30;;;;;;;22.92;40.98;95045.78;6161343;28;109153;-60
2023/12/03 14:00:45;;;;;;;3.40;2.80;;;;;;;22.93;40.75;95058.03;6172137;28;109481;-59
2023/12/03 14:03:48;;;;;;;4.13;3.13;;;;;;;22.92;40.72;95067.13;6171649;28;109580;-60
2023/12/03 14:06:51;;;;;;;3.57;3.13;;;;;;;22.93;40.75;95073.25;6177979;28;108760;-60
2023/12/03 14:09:56;;;;;;;4.13;3.40;;;;;;;22.91;41.24;95084.25;6157954;28;109217;-60
2023/12/03 14:12:59;;;;;;;3.47;2.93;;;;;;;22.89;41.20;95061.63;6163042;28;109964;-60
2023/12/03 14:16:02;;;;;;;3.50;3.20;;;;;;;22.94;40.62;95082.84;6163278;28;109703;-62